createdAt,value
2022-09-12T00:04:43.934Z,14.6
2022-09-12T00:09:45.867Z,14.6
2022-09-12T00:14:47.795Z,14.5
2022-09-12T00:19:49.822Z,14.5
2022-09-12T00:24:52.196Z,14.6
2022-09-12T00:29:54.252Z,14.5
2022-09-12T00:34:56.358Z,14.6
2022-09-12T00:39:58.539Z,14.6
2022-09-12T00:45:00.650Z,14.6
2022-09-12T00:50:02.703Z,14.7
2022-09-12T00:55:04.815Z,14.7
2022-09-12T01:00:06.913Z,14.7
2022-09-12T01:05:10.864Z,14.6
2022-09-12T01:10:13.346Z,14.6
2022-09-12T01:15:15.353Z,14.6
2022-09-12T01:20:18.502Z,14.5
2022-09-12T01:25:21.695Z,14.4
2022-09-12T01:30:23.711Z,14.4
2022-09-12T01:35:25.760Z,14.4
2022-09-12T01:40:28.467Z,14.3
2022-09-12T01:45:30.530Z,14.2
2022-09-12T01:50:32.623Z,14.2
2022-09-12T01:55:34.572Z,14.1
2022-09-12T02:00:36.658Z,14
2022-09-12T02:05:38.595Z,13.9
2022-09-12T02:10:40.683Z,13.9
2022-09-12T02:15:42.673Z,13.8
2022-09-12T02:20:52.105Z,13.8
2022-09-12T02:25:54.159Z,13.7
2022-09-12T02:30:57.044Z,13.6
2022-09-12T02:35:59.143Z,13.6
2022-09-12T02:41:01.238Z,13.6
2022-09-12T02:46:03.932Z,13.6
2022-09-12T02:51:06.431Z,13.5
2022-09-12T02:56:08.650Z,13.5
2022-09-12T03:01:11.167Z,13.5
2022-09-12T03:06:13.218Z,13.4
2022-09-12T03:11:15.302Z,13.5
2022-09-12T03:16:17.577Z,13.6
2022-09-12T03:21:19.594Z,13.8
2022-09-12T03:26:21.723Z,13.8
2022-09-12T03:31:23.666Z,13.9
2022-09-12T03:36:25.757Z,13.9
2022-09-12T03:41:27.760Z,13.7
2022-09-12T03:46:29.663Z,13.6
2022-09-12T03:51:31.901Z,13.5
2022-09-12T03:56:34.303Z,13.4
2022-09-12T04:01:36.626Z,13.3
2022-09-12T04:06:38.729Z,13.3
2022-09-12T04:11:40.747Z,13.2
2022-09-12T04:16:43.282Z,13.2
2022-09-12T04:21:45.543Z,13.2
2022-09-12T04:26:47.473Z,13.3
2022-09-12T04:31:49.574Z,13.3
2022-09-12T04:36:51.563Z,13.1
2022-09-12T04:41:53.702Z,13.3
2022-09-12T04:46:55.679Z,13.6
2022-09-12T04:51:57.974Z,14.1
2022-09-12T04:57:00.513Z,15.1
2022-09-12T05:02:03.177Z,15.1
2022-09-12T05:07:05.346Z,14.9
2022-09-12T05:12:07.985Z,14.9
2022-09-12T05:17:09.959Z,14.8
2022-09-12T05:22:11.949Z,15.3
2022-09-12T05:27:14.019Z,15.4
2022-09-12T05:32:16.079Z,15.4
2022-09-12T05:37:18.623Z,16.2
2022-09-12T05:42:20.665Z,16.1
2022-09-12T05:47:22.708Z,16.8
2022-09-12T05:52:24.696Z,17.6
2022-09-12T05:57:27.124Z,18.2
2022-09-12T06:02:29.335Z,18.2
2022-09-12T06:07:31.306Z,19.2
2022-09-12T06:12:35.756Z,19.1
2022-09-12T06:17:37.717Z,19.1
2022-09-12T06:22:39.853Z,20.1
2022-09-12T06:27:42.519Z,20.5
2022-09-12T06:32:44.741Z,20.5
2022-09-12T06:37:46.927Z,20.6
2022-09-12T06:42:49.106Z,21.3
2022-09-12T06:47:51.004Z,21.3
2022-09-12T06:52:53.251Z,21.9
2022-09-12T06:57:55.721Z,22.2
2022-09-12T07:02:57.737Z,22.1
2022-09-12T07:07:59.740Z,23.4
2022-09-12T07:13:02.159Z,23.5
2022-09-12T07:18:04.068Z,23.4
2022-09-12T07:23:06.062Z,24.6
2022-09-12T07:28:08.124Z,24.1
2022-09-12T07:33:11.108Z,24.5
2022-09-12T07:38:13.151Z,25.4
2022-09-12T07:43:15.641Z,25.4
2022-09-12T07:48:17.814Z,25.3
2022-09-12T07:53:19.694Z,25.1
2022-09-12T07:58:21.685Z,25.9
2022-09-12T08:03:23.818Z,25.5
2022-09-12T08:08:25.879Z,24.7
2022-09-12T08:13:27.784Z,24.8
2022-09-12T08:18:30.191Z,25.2
2022-09-12T08:23:32.289Z,25.2
2022-09-12T08:28:35.034Z,25.8
2022-09-12T08:33:37.270Z,25.7
2022-09-12T08:43:39.733Z,27.9
2022-09-12T08:48:41.623Z,27.9
2022-09-12T08:53:46.159Z,30.3
2022-09-12T08:58:48.396Z,30.2
2022-09-12T09:03:50.373Z,31.5
2022-09-12T09:08:52.554Z,31.4
2022-09-12T09:13:54.579Z,32.8
2022-09-12T09:18:56.685Z,30.9
2022-09-12T09:23:58.547Z,31.2
2022-09-12T09:29:00.427Z,28.7
2022-09-12T09:34:02.412Z,28.9
2022-09-12T09:39:04.423Z,32.7
2022-09-12T09:49:09.723Z,34.4
2022-09-12T09:54:11.624Z,36.5
2022-09-12T09:59:13.749Z,36.1
2022-09-12T10:04:15.935Z,37.1
2022-09-12T10:09:17.960Z,35.3
2022-09-12T10:14:20.176Z,35.5
2022-09-12T10:19:22.051Z,37
2022-09-12T10:24:24.001Z,35.4
2022-09-12T10:29:26.180Z,35
2022-09-12T10:34:28.144Z,35.8
2022-09-12T10:39:30.120Z,37.9
2022-09-12T10:44:32.462Z,37.4
2022-09-12T10:49:34.548Z,37.1
2022-09-12T10:54:36.512Z,35.7
2022-09-12T10:59:38.436Z,34.5
2022-09-12T11:04:41.309Z,31
2022-09-12T11:09:43.354Z,31
2022-09-12T11:14:45.229Z,34.9
2022-09-12T11:19:47.350Z,33
2022-09-12T11:24:49.780Z,29.6
2022-09-12T11:29:51.713Z,27.1
2022-09-12T11:34:53.576Z,25.9
2022-09-12T11:39:57.844Z,24.8
2022-09-12T11:44:59.817Z,24.8
2022-09-12T11:50:02.537Z,25
2022-09-12T11:55:04.435Z,25.7
2022-09-12T12:00:06.410Z,25.7
2022-09-12T12:05:08.439Z,27.7
2022-09-12T12:10:10.651Z,27.3
2022-09-12T12:15:12.714Z,26
2022-09-12T12:20:14.648Z,24.7
2022-09-12T12:25:29.571Z,23.9
2022-09-12T12:30:21.980Z,23.8
2022-09-12T12:35:24.029Z,23.5
2022-09-12T12:40:26.330Z,23.6
2022-09-12T12:45:28.351Z,23.5
2022-09-12T12:55:30.824Z,22.7
2022-09-12T13:00:32.772Z,22.6
2022-09-12T13:05:34.853Z,22.3
2022-09-12T13:10:36.821Z,22.3
2022-09-12T13:15:39.407Z,22.3
2022-09-12T13:20:41.544Z,22.2
2022-09-12T13:25:43.459Z,22.7
2022-09-12T13:30:46.097Z,23.2
2022-09-12T13:35:48.363Z,23.2
2022-09-12T13:40:50.332Z,22.7
2022-09-12T13:45:52.500Z,22
2022-09-12T13:50:54.565Z,21.8
2022-09-12T13:55:56.565Z,22
2022-09-12T14:00:59.034Z,22.5
2022-09-12T14:06:01.044Z,22.5
2022-09-12T14:11:03.228Z,22.5
2022-09-12T14:16:05.741Z,23.2
2022-09-12T14:21:08.113Z,23.2
2022-09-12T14:26:10.051Z,23
2022-09-12T14:31:12.496Z,23.1
2022-09-12T14:36:14.760Z,23
2022-09-12T14:41:17.343Z,22.7
2022-09-12T14:46:21.264Z,22.4
2022-09-12T14:51:24.761Z,22.4
2022-09-12T14:56:29.581Z,22.6
2022-09-12T15:01:32.295Z,22.9
2022-09-12T15:06:36.139Z,22.7
2022-09-12T15:11:38.386Z,22.6
2022-09-12T15:16:40.684Z,22.5
2022-09-12T15:21:42.842Z,22.5
2022-09-12T15:26:45.674Z,22.5
2022-09-12T15:31:48.162Z,21.8
2022-09-12T15:36:50.194Z,21.8
2022-09-12T15:41:52.236Z,21.7
2022-09-12T15:46:54.699Z,21.6
2022-09-12T15:51:57.554Z,21.6
2022-09-12T15:56:59.557Z,21.5
2022-09-12T16:02:02.468Z,21.3
2022-09-12T16:07:05.218Z,21.1
2022-09-12T16:12:07.445Z,21.1
2022-09-12T16:17:10.046Z,20.9
2022-09-12T16:22:12.047Z,20.9
2022-09-12T16:27:14.405Z,20.7
2022-09-12T16:32:17.762Z,20.6
2022-09-12T16:37:19.968Z,20.5
2022-09-12T16:42:22.080Z,20.3
2022-09-12T16:47:24.113Z,20.3
2022-09-12T16:52:26.224Z,20
2022-09-12T16:57:28.308Z,19.7
2022-09-12T17:02:30.757Z,19.2
2022-09-12T17:07:33.018Z,19.1
2022-09-12T17:12:35.102Z,18.9
2022-09-12T17:17:37.325Z,18.8
2022-09-12T17:22:39.348Z,18.6
2022-09-12T17:27:42.022Z,18.3
2022-09-12T17:32:44.098Z,18.3
2022-09-12T17:37:46.079Z,18.1
2022-09-12T17:42:48.218Z,18
2022-09-12T17:47:50.241Z,17.8
2022-09-12T17:52:52.123Z,17.7
2022-09-12T17:57:54.097Z,17.5
2022-09-12T18:02:56.972Z,17.3
2022-09-12T18:08:00.356Z,17.3
2022-09-12T18:13:02.318Z,17.2
2022-09-12T18:18:04.507Z,17.1
2022-09-12T18:23:07.044Z,16.8
2022-09-12T18:28:11.811Z,16.7
2022-09-12T18:33:15.098Z,16.6
2022-09-12T18:38:17.065Z,16.5
2022-09-12T18:43:18.998Z,16.4
2022-09-12T18:48:21.012Z,16.3
2022-09-12T18:53:23.585Z,16
2022-09-12T18:58:25.570Z,15.9
2022-09-12T19:03:27.630Z,15.9
2022-09-12T19:08:29.721Z,15.8
2022-09-12T19:13:31.685Z,15.7
2022-09-12T19:18:33.698Z,15.6
2022-09-12T19:23:36.847Z,15.5
2022-09-12T19:28:38.950Z,15.4
2022-09-12T19:33:40.967Z,15.3
2022-09-12T19:38:43.046Z,15.3
2022-09-12T19:43:45.032Z,15.1
2022-09-12T19:48:47.793Z,15.1
2022-09-12T19:53:50.401Z,15
2022-09-12T19:58:58.185Z,14.8
2022-09-12T20:04:00.405Z,14.8
2022-09-12T20:09:03.200Z,14.6
2022-09-12T20:14:05.738Z,14.4
2022-09-12T20:19:09.142Z,14.4
2022-09-12T20:24:11.402Z,14.3
2022-09-12T20:29:13.511Z,14.3
2022-09-12T20:34:15.534Z,14.2
2022-09-12T20:39:17.644Z,14.1
2022-09-12T20:44:19.648Z,14.1
2022-09-12T20:49:21.589Z,13.9
2022-09-12T20:54:23.610Z,13.8
2022-09-12T20:59:25.613Z,13.6
2022-09-12T21:04:27.559Z,13.4
2022-09-12T21:09:29.910Z,13.4
2022-09-12T21:14:31.990Z,13.4
2022-09-12T21:19:33.905Z,13.3
2022-09-12T21:24:35.926Z,13.2
2022-09-12T21:29:38.126Z,13.1
2022-09-12T21:34:40.433Z,13
2022-09-12T21:44:43.025Z,12.9
2022-09-12T21:49:45.105Z,12.8
2022-09-12T21:54:47.067Z,12.7
2022-09-12T21:59:49.024Z,12.7
2022-09-12T22:04:51.102Z,12.6
2022-09-12T22:09:53.337Z,12.6
2022-09-12T22:14:55.348Z,12.7
2022-09-12T22:19:57.629Z,12.6
2022-09-12T22:24:59.684Z,12.5
2022-09-12T22:30:01.819Z,12.4
2022-09-12T22:35:04.060Z,12.4
2022-09-12T22:40:06.125Z,12.4
2022-09-12T22:45:08.294Z,12.4
2022-09-12T22:50:10.330Z,12.3
2022-09-12T22:55:12.824Z,12.1
2022-09-12T23:00:15.082Z,12
2022-09-12T23:05:17.325Z,12.1
2022-09-12T23:10:19.466Z,12.1
2022-09-12T23:15:21.459Z,12.1
2022-09-12T23:20:23.560Z,12.1
2022-09-12T23:25:25.481Z,12.1
2022-09-12T23:30:27.577Z,12.1
2022-09-12T23:35:29.544Z,12
2022-09-12T23:40:31.472Z,12.1
2022-09-12T23:45:33.582Z,12.1
2022-09-12T23:50:36.098Z,11.9
2022-09-12T23:55:38.420Z,11.9
